sensor_id;sensor_type;location;lat;lon;timestamp;P1;durP1;ratioP1;P2;durP2;ratioP2
31676;SDS011;18385;51.572;6.578;2024-01-30T00:01:15;11.93;;;5.38;;
31676;SDS011;18385;51.572;6.578;2024-01-30T00:03:41;17.58;;;6.50;;
31676;SDS011;18385;51.572;6.578;2024-01-30T00:06:07;14.60;;;6.00;;
31676;SDS011;18385;51.572;6.578;2024-01-30T00:08:34;14.43;;;6.15;;
31676;SDS011;18385;51.572;6.578;2024-01-30T00:10:59;12.00;;;6.75;;
31676;SDS011;18385;51.572;6.578;2024-01-30T00:13:26;15.00;;;5.78;;
31676;SDS011;18385;51.572;6.578;2024-01-30T00:15:52;17.48;;;5.97;;
31676;SDS011;18385;51.572;6.578;2024-01-30T00:18:18;18.33;;;7.03;;
31676;SDS011;18385;51.572;6.578;2024-01-30T00:20:44;12.70;;;6.40;;
31676;SDS011;18385;51.572;6.578;2024-01-30T00:23:10;16.30;;;6.10;;
31676;SDS011;18385;51.572;6.578;2024-01-30T00:25:35;14.90;;;6.68;;
31676;SDS011;18385;51.572;6.578;2024-01-30T00:28:01;16.25;;;6.30;;
31676;SDS011;18385;51.572;6.578;2024-01-30T00:30:27;14.38;;;6.20;;
31676;SDS011;18385;51.572;6.578;2024-01-30T00:32:53;13.65;;;5.72;;
31676;SDS011;18385;51.572;6.578;2024-01-30T00:35:19;15.98;;;5.80;;
31676;SDS011;18385;51.572;6.578;2024-01-30T00:37:47;12.70;;;6.60;;
31676;SDS011;18385;51.572;6.578;2024-01-30T00:40:12;18.00;;;6.10;;
31676;SDS011;18385;51.572;6.578;2024-01-30T00:42:43;14.07;;;6.07;;
31676;SDS011;18385;51.572;6.578;2024-01-30T00:45:16;20.75;;;6.93;;
31676;SDS011;18385;51.572;6.578;2024-01-30T00:47:42;19.90;;;6.47;;
31676;SDS011;18385;51.572;6.578;2024-01-30T00:50:08;18.85;;;6.55;;
31676;SDS011;18385;51.572;6.578;2024-01-30T00:52:34;21.38;;;6.40;;
31676;SDS011;18385;51.572;6.578;2024-01-30T00:55:00;14.73;;;6.80;;
31676;SDS011;18385;51.572;6.578;2024-01-30T00:57:27;17.45;;;6.43;;
31676;SDS011;18385;51.572;6.578;2024-01-30T00:59:53;12.57;;;6.25;;
31676;SDS011;18385;51.572;6.578;2024-01-30T01:02:19;14.02;;;6.28;;
31676;SDS011;18385;51.572;6.578;2024-01-30T01:04:44;16.00;;;6.97;;
31676;SDS011;18385;51.572;6.578;2024-01-30T01:07:10;14.02;;;6.55;;
31676;SDS011;18385;51.572;6.578;2024-01-30T01:09:36;16.30;;;6.35;;
31676;SDS011;18385;51.572;6.578;2024-01-30T01:12:02;15.93;;;6.75;;
31676;SDS011;18385;51.572;6.578;2024-01-30T01:14:28;15.88;;;6.78;;
31676;SDS011;18385;51.572;6.578;2024-01-30T01:16:54;13.52;;;7.00;;
31676;SDS011;18385;51.572;6.578;2024-01-30T01:19:20;18.83;;;6.82;;
31676;SDS011;18385;51.572;6.578;2024-01-30T01:21:46;14.38;;;6.78;;
31676;SDS011;18385;51.572;6.578;2024-01-30T01:24:11;17.15;;;6.30;;
31676;SDS011;18385;51.572;6.578;2024-01-30T01:26:37;13.43;;;5.95;;
31676;SDS011;18385;51.572;6.578;2024-01-30T01:29:03;13.82;;;5.95;;
31676;SDS011;18385;51.572;6.578;2024-01-30T01:31:38;18.17;;;7.18;;
31676;SDS011;18385;51.572;6.578;2024-01-30T01:34:10;19.30;;;6.38;;
31676;SDS011;18385;51.572;6.578;2024-01-30T01:36:36;23.50;;;6.15;;
31676;SDS011;18385;51.572;6.578;2024-01-30T01:39:02;18.73;;;6.60;;
31676;SDS011;18385;51.572;6.578;2024-01-30T01:41:31;14.73;;;6.07;;
31676;SDS011;18385;51.572;6.578;2024-01-30T01:46:26;17.10;;;6.90;;
31676;SDS011;18385;51.572;6.578;2024-01-30T01:48:52;13.55;;;7.30;;
31676;SDS011;18385;51.572;6.578;2024-01-30T01:51:19;16.13;;;6.60;;
31676;SDS011;18385;51.572;6.578;2024-01-30T01:53:45;13.77;;;6.50;;
31676;SDS011;18385;51.572;6.578;2024-01-30T01:56:11;16.52;;;7.05;;
31676;SDS011;18385;51.572;6.578;2024-01-30T01:58:37;18.92;;;7.57;;
31676;SDS011;18385;51.572;6.578;2024-01-30T02:01:03;18.58;;;6.47;;
31676;SDS011;18385;51.572;6.578;2024-01-30T02:03:30;18.98;;;6.35;;
31676;SDS011;18385;51.572;6.578;2024-01-30T02:05:56;12.50;;;6.18;;
31676;SDS011;18385;51.572;6.578;2024-01-30T02:08:22;15.65;;;5.93;;
31676;SDS011;18385;51.572;6.578;2024-01-30T02:10:49;15.48;;;6.07;;
31676;SDS011;18385;51.572;6.578;2024-01-30T02:13:15;16.67;;;6.30;;
31676;SDS011;18385;51.572;6.578;2024-01-30T02:15:40;13.73;;;6.47;;
31676;SDS011;18385;51.572;6.578;2024-01-30T02:18:06;15.18;;;6.20;;
31676;SDS011;18385;51.572;6.578;2024-01-30T02:20:32;16.52;;;6.10;;
31676;SDS011;18385;51.572;6.578;2024-01-30T02:23:00;14.40;;;6.78;;
31676;SDS011;18385;51.572;6.578;2024-01-30T02:25:37;13.55;;;5.90;;
31676;SDS011;18385;51.572;6.578;2024-01-30T02:28:12;18.98;;;6.40;;
31676;SDS011;18385;51.572;6.578;2024-01-30T02:30:39;14.85;;;6.35;;
31676;SDS011;18385;51.572;6.578;2024-01-30T02:33:04;17.83;;;6.90;;
31676;SDS011;18385;51.572;6.578;2024-01-30T02:35:30;12.50;;;6.43;;
31676;SDS011;18385;51.572;6.578;2024-01-30T02:37:56;18.40;;;7.65;;
31676;SDS011;18385;51.572;6.578;2024-01-30T02:40:21;13.68;;;6.25;;
31676;SDS011;18385;51.572;6.578;2024-01-30T02:42:47;13.02;;;6.53;;
31676;SDS011;18385;51.572;6.578;2024-01-30T02:45:13;18.30;;;7.28;;
31676;SDS011;18385;51.572;6.578;2024-01-30T02:47:39;14.30;;;5.72;;
31676;SDS011;18385;51.572;6.578;2024-01-30T02:50:05;18.48;;;7.22;;
31676;SDS011;18385;51.572;6.578;2024-01-30T02:52:31;16.55;;;6.88;;
31676;SDS011;18385;51.572;6.578;2024-01-30T02:54:57;16.38;;;7.63;;
31676;SDS011;18385;51.572;6.578;2024-01-30T02:57:22;26.35;;;6.82;;
31676;SDS011;18385;51.572;6.578;2024-01-30T02:59:48;20.67;;;7.00;;
31676;SDS011;18385;51.572;6.578;2024-01-30T03:02:14;16.55;;;6.93;;
31676;SDS011;18385;51.572;6.578;2024-01-30T03:04:43;15.15;;;6.82;;
31676;SDS011;18385;51.572;6.578;2024-01-30T03:07:09;19.50;;;7.65;;
31676;SDS011;18385;51.572;6.578;2024-01-30T03:09:34;21.58;;;8.40;;
31676;SDS011;18385;51.572;6.578;2024-01-30T03:12:01;22.98;;;6.90;;
31676;SDS011;18385;51.572;6.578;2024-01-30T03:14:27;16.27;;;6.95;;
31676;SDS011;18385;51.572;6.578;2024-01-30T03:16:53;24.48;;;7.70;;
31676;SDS011;18385;51.572;6.578;2024-01-30T03:19:19;30.67;;;8.13;;
31676;SDS011;18385;51.572;6.578;2024-01-30T03:21:45;17.38;;;6.65;;
31676;SDS011;18385;51.572;6.578;2024-01-30T03:24:10;24.30;;;8.10;;
31676;SDS011;18385;51.572;6.578;2024-01-30T03:26:36;33.15;;;8.13;;
31676;SDS011;18385;51.572;6.578;2024-01-30T03:29:01;36.78;;;8.25;;
31676;SDS011;18385;51.572;6.578;2024-01-30T03:31:27;30.48;;;8.18;;
31676;SDS011;18385;51.572;6.578;2024-01-30T03:33:52;28.73;;;8.02;;
31676;SDS011;18385;51.572;6.578;2024-01-30T03:36:18;28.13;;;9.18;;
31676;SDS011;18385;51.572;6.578;2024-01-30T03:38:44;29.58;;;8.45;;
31676;SDS011;18385;51.572;6.578;2024-01-30T03:41:10;25.67;;;7.70;;
31676;SDS011;18385;51.572;6.578;2024-01-30T03:43:36;15.48;;;6.60;;
31676;SDS011;18385;51.572;6.578;2024-01-30T03:46:02;18.33;;;6.55;;
31676;SDS011;18385;51.572;6.578;2024-01-30T03:48:28;16.77;;;6.75;;
31676;SDS011;18385;51.572;6.578;2024-01-30T03:50:54;17.98;;;6.13;;
31676;SDS011;18385;51.572;6.578;2024-01-30T03:53:20;15.50;;;6.20;;
31676;SDS011;18385;51.572;6.578;2024-01-30T03:55:45;14.98;;;6.30;;
31676;SDS011;18385;51.572;6.578;2024-01-30T03:58:11;20.65;;;6.43;;
31676;SDS011;18385;51.572;6.578;2024-01-30T04:00:37;14.25;;;6.53;;
31676;SDS011;18385;51.572;6.578;2024-01-30T04:03:03;14.02;;;5.82;;
31676;SDS011;18385;51.572;6.578;2024-01-30T04:05:29;17.40;;;6.22;;
31676;SDS011;18385;51.572;6.578;2024-01-30T04:07:54;11.82;;;5.65;;
31676;SDS011;18385;51.572;6.578;2024-01-30T04:10:20;16.80;;;5.82;;
31676;SDS011;18385;51.572;6.578;2024-01-30T04:12:46;12.38;;;5.93;;
31676;SDS011;18385;51.572;6.578;2024-01-30T04:15:11;19.30;;;6.57;;
31676;SDS011;18385;51.572;6.578;2024-01-30T04:17:38;13.25;;;5.95;;
31676;SDS011;18385;51.572;6.578;2024-01-30T04:20:05;12.55;;;6.15;;
31676;SDS011;18385;51.572;6.578;2024-01-30T04:22:31;16.23;;;6.40;;
31676;SDS011;18385;51.572;6.578;2024-01-30T04:24:57;17.45;;;6.10;;
31676;SDS011;18385;51.572;6.578;2024-01-30T04:27:22;12.07;;;6.18;;
31676;SDS011;18385;51.572;6.578;2024-01-30T04:29:48;9.90;;;4.85;;
31676;SDS011;18385;51.572;6.578;2024-01-30T04:32:14;16.38;;;5.80;;
31676;SDS011;18385;51.572;6.578;2024-01-30T04:34:40;33.92;;;7.05;;
31676;SDS011;18385;51.572;6.578;2024-01-30T04:37:05;11.77;;;5.45;;
31676;SDS011;18385;51.572;6.578;2024-01-30T04:39:32;11.80;;;5.85;;
31676;SDS011;18385;51.572;6.578;2024-01-30T04:41:58;17.92;;;5.68;;
31676;SDS011;18385;51.572;6.578;2024-01-30T04:44:24;14.80;;;5.32;;
31676;SDS011;18385;51.572;6.578;2024-01-30T04:46:50;13.07;;;5.97;;
31676;SDS011;18385;51.572;6.578;2024-01-30T04:49:16;9.35;;;5.78;;
31676;SDS011;18385;51.572;6.578;2024-01-30T04:51:41;18.10;;;6.38;;
31676;SDS011;18385;51.572;6.578;2024-01-30T04:54:07;15.88;;;6.85;;
31676;SDS011;18385;51.572;6.578;2024-01-30T04:56:32;14.68;;;5.82;;
31676;SDS011;18385;51.572;6.578;2024-01-30T04:58:59;16.13;;;5.88;;
31676;SDS011;18385;51.572;6.578;2024-01-30T05:01:25;15.18;;;6.60;;
31676;SDS011;18385;51.572;6.578;2024-01-30T05:03:51;17.00;;;6.30;;
31676;SDS011;18385;51.572;6.578;2024-01-30T05:06:26;9.93;;;5.57;;
31676;SDS011;18385;51.572;6.578;2024-01-30T05:08:52;17.20;;;5.90;;
31676;SDS011;18385;51.572;6.578;2024-01-30T05:11:18;12.80;;;5.80;;
31676;SDS011;18385;51.572;6.578;2024-01-30T05:13:44;14.35;;;6.30;;
31676;SDS011;18385;51.572;6.578;2024-01-30T05:16:09;13.00;;;7.05;;
31676;SDS011;18385;51.572;6.578;2024-01-30T05:18:35;16.00;;;7.68;;
31676;SDS011;18385;51.572;6.578;2024-01-30T05:21:02;15.15;;;7.03;;
31676;SDS011;18385;51.572;6.578;2024-01-30T05:23:28;16.27;;;6.55;;
31676;SDS011;18385;51.572;6.578;2024-01-30T05:25:54;15.45;;;6.82;;
31676;SDS011;18385;51.572;6.578;2024-01-30T05:28:19;22.73;;;7.65;;
31676;SDS011;18385;51.572;6.578;2024-01-30T05:30:45;34.15;;;9.48;;
31676;SDS011;18385;51.572;6.578;2024-01-30T05:33:11;13.32;;;5.50;;
31676;SDS011;18385;51.572;6.578;2024-01-30T05:35:37;15.25;;;6.63;;
31676;SDS011;18385;51.572;6.578;2024-01-30T05:38:03;17.85;;;5.88;;
31676;SDS011;18385;51.572;6.578;2024-01-30T05:40:29;11.55;;;5.50;;
31676;SDS011;18385;51.572;6.578;2024-01-30T05:42:55;12.82;;;6.03;;
31676;SDS011;18385;51.572;6.578;2024-01-30T05:45:23;15.50;;;4.90;;
31676;SDS011;18385;51.572;6.578;2024-01-30T05:47:49;13.75;;;5.35;;
31676;SDS011;18385;51.572;6.578;2024-01-30T05:50:14;11.50;;;5.97;;
31676;SDS011;18385;51.572;6.578;2024-01-30T05:52:40;13.65;;;5.22;;
31676;SDS011;18385;51.572;6.578;2024-01-30T05:55:06;14.48;;;5.82;;
31676;SDS011;18385;51.572;6.578;2024-01-30T05:57:32;13.52;;;5.82;;
31676;SDS011;18385;51.572;6.578;2024-01-30T05:59:57;10.60;;;5.82;;
31676;SDS011;18385;51.572;6.578;2024-01-30T06:02:23;14.57;;;4.97;;
31676;SDS011;18385;51.572;6.578;2024-01-30T06:04:48;16.00;;;7.13;;
31676;SDS011;18385;51.572;6.578;2024-01-30T06:07:14;12.18;;;5.60;;
31676;SDS011;18385;51.572;6.578;2024-01-30T06:09:40;13.68;;;6.75;;
31676;SDS011;18385;51.572;6.578;2024-01-30T06:12:06;13.68;;;5.50;;
31676;SDS011;18385;51.572;6.578;2024-01-30T06:14:31;14.38;;;7.07;;
31676;SDS011;18385;51.572;6.578;2024-01-30T06:16:58;15.85;;;6.50;;
31676;SDS011;18385;51.572;6.578;2024-01-30T06:19:24;20.23;;;6.85;;
31676;SDS011;18385;51.572;6.578;2024-01-30T06:21:50;14.23;;;5.68;;
31676;SDS011;18385;51.572;6.578;2024-01-30T06:24:15;12.45;;;5.50;;
31676;SDS011;18385;51.572;6.578;2024-01-30T06:26:42;14.25;;;5.85;;
31676;SDS011;18385;51.572;6.578;2024-01-30T06:29:08;17.77;;;5.07;;
31676;SDS011;18385;51.572;6.578;2024-01-30T06:31:39;13.32;;;5.32;;
31676;SDS011;18385;51.572;6.578;2024-01-30T06:34:05;13.63;;;5.78;;
31676;SDS011;18385;51.572;6.578;2024-01-30T06:36:30;13.73;;;5.20;;
31676;SDS011;18385;51.572;6.578;2024-01-30T06:38:56;13.68;;;5.35;;
31676;SDS011;18385;51.572;6.578;2024-01-30T06:41:22;15.63;;;5.68;;
31676;SDS011;18385;51.572;6.578;2024-01-30T06:43:47;12.93;;;5.93;;
31676;SDS011;18385;51.572;6.578;2024-01-30T06:46:13;18.38;;;6.80;;
31676;SDS011;18385;51.572;6.578;2024-01-30T06:48:39;15.02;;;5.50;;
31676;SDS011;18385;51.572;6.578;2024-01-30T06:51:05;13.07;;;6.35;;
31676;SDS011;18385;51.572;6.578;2024-01-30T06:53:31;15.57;;;6.75;;
31676;SDS011;18385;51.572;6.578;2024-01-30T06:55:57;14.77;;;7.13;;
31676;SDS011;18385;51.572;6.578;2024-01-30T06:58:22;20.80;;;5.80;;
31676;SDS011;18385;51.572;6.578;2024-01-30T07:00:48;11.25;;;5.32;;
31676;SDS011;18385;51.572;6.578;2024-01-30T07:03:14;17.50;;;6.60;;
31676;SDS011;18385;51.572;6.578;2024-01-30T07:05:39;16.75;;;5.82;;
31676;SDS011;18385;51.572;6.578;2024-01-30T07:08:05;18.30;;;6.13;;
31676;SDS011;18385;51.572;6.578;2024-01-30T07:10:31;18.45;;;5.57;;
31676;SDS011;18385;51.572;6.578;2024-01-30T07:12:57;13.05;;;5.60;;
31676;SDS011;18385;51.572;6.578;2024-01-30T07:15:22;17.13;;;4.75;;
31676;SDS011;18385;51.572;6.578;2024-01-30T07:17:48;15.07;;;5.55;;
31676;SDS011;18385;51.572;6.578;2024-01-30T07:20:13;14.55;;;6.25;;
31676;SDS011;18385;51.572;6.578;2024-01-30T07:22:39;15.27;;;5.20;;
31676;SDS011;18385;51.572;6.578;2024-01-30T07:25:06;14.48;;;5.13;;
31676;SDS011;18385;51.572;6.578;2024-01-30T07:27:32;12.10;;;5.43;;
31676;SDS011;18385;51.572;6.578;2024-01-30T07:29:57;11.75;;;5.85;;
31676;SDS011;18385;51.572;6.578;2024-01-30T07:32:23;11.07;;;5.03;;
31676;SDS011;18385;51.572;6.578;2024-01-30T07:34:49;18.20;;;6.32;;
31676;SDS011;18385;51.572;6.578;2024-01-30T07:37:15;15.13;;;5.05;;
31676;SDS011;18385;51.572;6.578;2024-01-30T07:39:41;17.08;;;6.05;;
31676;SDS011;18385;51.572;6.578;2024-01-30T07:42:07;17.00;;;5.25;;
31676;SDS011;18385;51.572;6.578;2024-01-30T07:44:33;17.77;;;6.20;;
31676;SDS011;18385;51.572;6.578;2024-01-30T07:46:59;12.25;;;6.35;;
31676;SDS011;18385;51.572;6.578;2024-01-30T07:49:25;13.77;;;5.82;;
31676;SDS011;18385;51.572;6.578;2024-01-30T07:51:56;13.43;;;6.20;;
31676;SDS011;18385;51.572;6.578;2024-01-30T07:54:34;13.18;;;5.30;;
31676;SDS011;18385;51.572;6.578;2024-01-30T07:57:07;12.18;;;4.90;;
31676;SDS011;18385;51.572;6.578;2024-01-30T07:59:33;11.50;;;5.55;;
31676;SDS011;18385;51.572;6.578;2024-01-30T08:02:01;16.00;;;5.45;;
31676;SDS011;18385;51.572;6.578;2024-01-30T08:04:27;12.23;;;5.55;;
31676;SDS011;18385;51.572;6.578;2024-01-30T08:06:52;10.68;;;5.20;;
31676;SDS011;18385;51.572;6.578;2024-01-30T08:09:18;15.10;;;6.20;;
31676;SDS011;18385;51.572;6.578;2024-01-30T08:11:53;15.85;;;6.68;;
31676;SDS011;18385;51.572;6.578;2024-01-30T08:14:29;18.65;;;6.45;;
31676;SDS011;18385;51.572;6.578;2024-01-30T08:17:04;16.48;;;7.50;;
31676;SDS011;18385;51.572;6.578;2024-01-30T08:19:36;14.85;;;6.90;;
31676;SDS011;18385;51.572;6.578;2024-01-30T08:22:12;12.13;;;5.90;;
31676;SDS011;18385;51.572;6.578;2024-01-30T08:24:42;15.93;;;6.13;;
31676;SDS011;18385;51.572;6.578;2024-01-30T08:27:16;11.68;;;6.28;;
31676;SDS011;18385;51.572;6.578;2024-01-30T08:29:42;15.38;;;6.20;;
31676;SDS011;18385;51.572;6.578;2024-01-30T08:32:22;18.90;;;6.28;;
31676;SDS011;18385;51.572;6.578;2024-01-30T08:35:21;13.77;;;5.90;;
31676;SDS011;18385;51.572;6.578;2024-01-30T08:38:05;15.43;;;5.82;;
31676;SDS011;18385;51.572;6.578;2024-01-30T08:40:43;13.10;;;5.93;;
31676;SDS011;18385;51.572;6.578;2024-01-30T08:43:36;13.07;;;5.57;;
31676;SDS011;18385;51.572;6.578;2024-01-30T08:46:02;15.48;;;6.90;;
31676;SDS011;18385;51.572;6.578;2024-01-30T08:48:36;16.17;;;8.48;;
31676;SDS011;18385;51.572;6.578;2024-01-30T08:51:04;11.40;;;6.97;;
31676;SDS011;18385;51.572;6.578;2024-01-30T08:53:33;12.63;;;6.93;;
31676;SDS011;18385;51.572;6.578;2024-01-30T08:56:01;14.05;;;6.68;;
31676;SDS011;18385;51.572;6.578;2024-01-30T08:58:33;17.23;;;7.40;;
31676;SDS011;18385;51.572;6.578;2024-01-30T09:01:00;19.83;;;10.52;;
31676;SDS011;18385;51.572;6.578;2024-01-30T09:03:25;24.08;;;12.68;;
31676;SDS011;18385;51.572;6.578;2024-01-30T09:05:52;26.95;;;11.98;;
31676;SDS011;18385;51.572;6.578;2024-01-30T09:08:18;16.70;;;7.78;;
31676;SDS011;18385;51.572;6.578;2024-01-30T09:10:43;21.90;;;10.30;;
31676;SDS011;18385;51.572;6.578;2024-01-30T09:13:09;22.35;;;10.10;;
31676;SDS011;18385;51.572;6.578;2024-01-30T09:15:35;18.23;;;10.20;;
31676;SDS011;18385;51.572;6.578;2024-01-30T09:18:01;17.98;;;8.32;;
31676;SDS011;18385;51.572;6.578;2024-01-30T09:20:26;23.25;;;8.90;;
31676;SDS011;18385;51.572;6.578;2024-01-30T09:22:52;14.90;;;7.13;;
31676;SDS011;18385;51.572;6.578;2024-01-30T09:25:18;17.58;;;6.88;;
31676;SDS011;18385;51.572;6.578;2024-01-30T09:27:43;15.02;;;7.45;;
31676;SDS011;18385;51.572;6.578;2024-01-30T09:30:09;24.45;;;9.85;;
31676;SDS011;18385;51.572;6.578;2024-01-30T09:32:35;16.33;;;7.13;;
31676;SDS011;18385;51.572;6.578;2024-01-30T09:35:01;16.70;;;7.05;;
31676;SDS011;18385;51.572;6.578;2024-01-30T09:37:42;15.10;;;7.40;;
31676;SDS011;18385;51.572;6.578;2024-01-30T09:40:21;17.35;;;7.15;;
31676;SDS011;18385;51.572;6.578;2024-01-30T09:43:03;20.17;;;7.75;;
31676;SDS011;18385;51.572;6.578;2024-01-30T09:45:34;15.65;;;8.02;;
31676;SDS011;18385;51.572;6.578;2024-01-30T09:48:02;17.60;;;9.55;;
31676;SDS011;18385;51.572;6.578;2024-01-30T09:50:33;17.90;;;8.77;;
31676;SDS011;18385;51.572;6.578;2024-01-30T09:53:13;15.77;;;8.98;;
31676;SDS011;18385;51.572;6.578;2024-01-30T09:55:43;18.67;;;9.27;;
31676;SDS011;18385;51.572;6.578;2024-01-30T09:58:12;17.77;;;8.80;;
31676;SDS011;18385;51.572;6.578;2024-01-30T10:00:45;17.77;;;9.88;;
31676;SDS011;18385;51.572;6.578;2024-01-30T10:06:33;18.42;;;9.38;;
31676;SDS011;18385;51.572;6.578;2024-01-30T10:09:04;20.13;;;10.05;;
31676;SDS011;18385;51.572;6.578;2024-01-30T10:11:37;15.07;;;7.05;;
31676;SDS011;18385;51.572;6.578;2024-01-30T10:14:03;20.35;;;9.18;;
31676;SDS011;18385;51.572;6.578;2024-01-30T10:16:29;15.88;;;9.55;;
31676;SDS011;18385;51.572;6.578;2024-01-30T10:18:55;12.55;;;6.68;;
31676;SDS011;18385;51.572;6.578;2024-01-30T10:21:20;15.75;;;7.47;;
31676;SDS011;18385;51.572;6.578;2024-01-30T10:23:46;14.88;;;5.75;;
31676;SDS011;18385;51.572;6.578;2024-01-30T10:26:12;12.13;;;5.68;;
31676;SDS011;18385;51.572;6.578;2024-01-30T10:28:38;8.82;;;5.07;;
31676;SDS011;18385;51.572;6.578;2024-01-30T10:31:03;14.68;;;5.10;;
31676;SDS011;18385;51.572;6.578;2024-01-30T10:33:29;9.93;;;5.25;;
31676;SDS011;18385;51.572;6.578;2024-01-30T10:35:57;11.93;;;5.05;;
31676;SDS011;18385;51.572;6.578;2024-01-30T10:38:28;10.77;;;5.72;;
31676;SDS011;18385;51.572;6.578;2024-01-30T10:40:56;9.27;;;4.50;;
31676;SDS011;18385;51.572;6.578;2024-01-30T10:43:23;9.07;;;4.50;;
31676;SDS011;18385;51.572;6.578;2024-01-30T10:46:11;11.60;;;4.75;;
31676;SDS011;18385;51.572;6.578;2024-01-30T10:48:43;8.90;;;4.20;;
31676;SDS011;18385;51.572;6.578;2024-01-30T10:51:15;9.60;;;4.68;;
31676;SDS011;18385;51.572;6.578;2024-01-30T10:53:43;8.18;;;4.45;;
31676;SDS011;18385;51.572;6.578;2024-01-30T10:56:13;7.28;;;4.25;;
31676;SDS011;18385;51.572;6.578;2024-01-30T10:58:41;11.55;;;5.40;;
31676;SDS011;18385;51.572;6.578;2024-01-30T11:01:07;11.88;;;4.50;;
31676;SDS011;18385;51.572;6.578;2024-01-30T11:03:34;8.27;;;4.28;;
31676;SDS011;18385;51.572;6.578;2024-01-30T11:06:02;10.02;;;4.00;;
31676;SDS011;18385;51.572;6.578;2024-01-30T11:08:27;6.57;;;3.95;;
31676;SDS011;18385;51.572;6.578;2024-01-30T11:10:57;9.00;;;3.88;;
31676;SDS011;18385;51.572;6.578;2024-01-30T11:13:30;8.30;;;3.70;;
31676;SDS011;18385;51.572;6.578;2024-01-30T11:16:00;5.80;;;3.08;;
31676;SDS011;18385;51.572;6.578;2024-01-30T11:18:28;11.55;;;4.00;;
31676;SDS011;18385;51.572;6.578;2024-01-30T11:20:55;10.63;;;4.03;;
31676;SDS011;18385;51.572;6.578;2024-01-30T11:23:22;8.48;;;4.20;;
31676;SDS011;18385;51.572;6.578;2024-01-30T11:25:48;9.02;;;4.32;;
31676;SDS011;18385;51.572;6.578;2024-01-30T11:28:14;9.93;;;4.75;;
31676;SDS011;18385;51.572;6.578;2024-01-30T11:30:41;10.93;;;4.65;;
31676;SDS011;18385;51.572;6.578;2024-01-30T11:33:09;10.70;;;3.97;;
31676;SDS011;18385;51.572;6.578;2024-01-30T11:35:39;8.32;;;4.18;;
31676;SDS011;18385;51.572;6.578;2024-01-30T11:38:09;9.95;;;4.70;;
31676;SDS011;18385;51.572;6.578;2024-01-30T11:40:39;11.27;;;5.00;;
31676;SDS011;18385;51.572;6.578;2024-01-30T11:43:06;10.10;;;4.57;;
31676;SDS011;18385;51.572;6.578;2024-01-30T11:45:33;10.30;;;4.05;;
31676;SDS011;18385;51.572;6.578;2024-01-30T11:48:00;7.45;;;3.90;;
31676;SDS011;18385;51.572;6.578;2024-01-30T11:50:28;12.27;;;4.20;;
31676;SDS011;18385;51.572;6.578;2024-01-30T11:52:54;10.75;;;4.38;;
31676;SDS011;18385;51.572;6.578;2024-01-30T11:55:21;7.63;;;3.58;;
31676;SDS011;18385;51.572;6.578;2024-01-30T11:57:46;6.93;;;3.45;;
31676;SDS011;18385;51.572;6.578;2024-01-30T12:00:16;7.88;;;3.95;;
31676;SDS011;18385;51.572;6.578;2024-01-30T12:02:43;10.52;;;4.35;;
31676;SDS011;18385;51.572;6.578;2024-01-30T12:05:09;8.98;;;4.88;;
31676;SDS011;18385;51.572;6.578;2024-01-30T12:07:35;10.25;;;4.53;;
31676;SDS011;18385;51.572;6.578;2024-01-30T12:10:01;9.63;;;4.38;;
31676;SDS011;18385;51.572;6.578;2024-01-30T12:12:30;8.82;;;4.43;;
31676;SDS011;18385;51.572;6.578;2024-01-30T12:14:57;9.63;;;4.20;;
31676;SDS011;18385;51.572;6.578;2024-01-30T12:17:23;8.23;;;4.05;;
31676;SDS011;18385;51.572;6.578;2024-01-30T12:20:02;8.32;;;3.78;;
31676;SDS011;18385;51.572;6.578;2024-01-30T12:22:33;12.32;;;3.83;;
31676;SDS011;18385;51.572;6.578;2024-01-30T12:25:07;9.23;;;3.90;;
31676;SDS011;18385;51.572;6.578;2024-01-30T12:27:34;9.55;;;4.00;;
31676;SDS011;18385;51.572;6.578;2024-01-30T12:30:00;6.88;;;3.75;;
31676;SDS011;18385;51.572;6.578;2024-01-30T12:32:26;10.13;;;3.85;;
31676;SDS011;18385;51.572;6.578;2024-01-30T12:34:56;8.35;;;3.75;;
31676;SDS011;18385;51.572;6.578;2024-01-30T12:37:22;10.73;;;4.03;;
31676;SDS011;18385;51.572;6.578;2024-01-30T12:39:50;13.50;;;4.63;;
31676;SDS011;18385;51.572;6.578;2024-01-30T12:42:18;11.20;;;4.43;;
31676;SDS011;18385;51.572;6.578;2024-01-30T12:44:45;9.25;;;4.13;;
31676;SDS011;18385;51.572;6.578;2024-01-30T12:47:26;8.40;;;3.40;;
31676;SDS011;18385;51.572;6.578;2024-01-30T12:49:55;8.98;;;3.95;;
31676;SDS011;18385;51.572;6.578;2024-01-30T12:52:24;8.88;;;3.78;;
31676;SDS011;18385;51.572;6.578;2024-01-30T12:54:55;8.63;;;4.15;;
31676;SDS011;18385;51.572;6.578;2024-01-30T12:57:26;10.70;;;4.53;;
31676;SDS011;18385;51.572;6.578;2024-01-30T13:00:10;10.70;;;3.88;;
31676;SDS011;18385;51.572;6.578;2024-01-30T13:02:39;7.70;;;3.63;;
31676;SDS011;18385;51.572;6.578;2024-01-30T13:05:12;8.73;;;3.40;;
31676;SDS011;18385;51.572;6.578;2024-01-30T13:10:55;7.93;;;3.88;;
31676;SDS011;18385;51.572;6.578;2024-01-30T13:13:32;11.20;;;3.67;;
31676;SDS011;18385;51.572;6.578;2024-01-30T13:19:14;7.47;;;3.38;;
31676;SDS011;18385;51.572;6.578;2024-01-30T13:21:51;5.60;;;2.95;;
31676;SDS011;18385;51.572;6.578;2024-01-30T13:25:02;13.75;;;3.60;;
31676;SDS011;18385;51.572;6.578;2024-01-30T13:27:45;10.13;;;3.70;;
31676;SDS011;18385;51.572;6.578;2024-01-30T13:30:39;8.65;;;3.45;;
31676;SDS011;18385;51.572;6.578;2024-01-30T13:33:20;11.00;;;3.40;;
31676;SDS011;18385;51.572;6.578;2024-01-30T13:36:13;6.57;;;3.65;;
31676;SDS011;18385;51.572;6.578;2024-01-30T13:39:09;8.73;;;3.72;;
31676;SDS011;18385;51.572;6.578;2024-01-30T13:42:17;9.90;;;3.42;;
31676;SDS011;18385;51.572;6.578;2024-01-30T13:48:01;6.30;;;3.38;;
31676;SDS011;18385;51.572;6.578;2024-01-30T13:50:30;7.90;;;3.00;;
31676;SDS011;18385;51.572;6.578;2024-01-30T13:53:34;9.48;;;4.07;;
31676;SDS011;18385;51.572;6.578;2024-01-30T13:56:27;12.85;;;3.75;;
31676;SDS011;18385;51.572;6.578;2024-01-30T13:58:55;7.47;;;2.75;;
31676;SDS011;18385;51.572;6.578;2024-01-30T14:01:50;8.02;;;3.85;;
31676;SDS011;18385;51.572;6.578;2024-01-30T14:07:55;4.68;;;2.38;;
31676;SDS011;18385;51.572;6.578;2024-01-30T14:11:16;3.33;;;2.30;;
31676;SDS011;18385;51.572;6.578;2024-01-30T14:14:05;5.18;;;2.40;;
31676;SDS011;18385;51.572;6.578;2024-01-30T14:16:54;8.48;;;3.50;;
31676;SDS011;18385;51.572;6.578;2024-01-30T14:19:19;6.53;;;2.10;;
31676;SDS011;18385;51.572;6.578;2024-01-30T14:21:45;5.30;;;2.17;;
31676;SDS011;18385;51.572;6.578;2024-01-30T14:24:11;6.15;;;1.85;;
31676;SDS011;18385;51.572;6.578;2024-01-30T14:26:36;3.50;;;1.75;;
31676;SDS011;18385;51.572;6.578;2024-01-30T14:29:02;6.93;;;1.67;;
31676;SDS011;18385;51.572;6.578;2024-01-30T14:31:27;6.70;;;2.20;;
31676;SDS011;18385;51.572;6.578;2024-01-30T14:33:53;7.97;;;1.45;;
31676;SDS011;18385;51.572;6.578;2024-01-30T14:36:20;3.60;;;1.52;;
31676;SDS011;18385;51.572;6.578;2024-01-30T14:38:46;5.45;;;1.23;;
31676;SDS011;18385;51.572;6.578;2024-01-30T14:41:11;5.47;;;1.00;;
31676;SDS011;18385;51.572;6.578;2024-01-30T14:43:37;2.75;;;1.33;;
31676;SDS011;18385;51.572;6.578;2024-01-30T14:46:02;3.47;;;0.95;;
31676;SDS011;18385;51.572;6.578;2024-01-30T14:48:31;2.55;;;0.50;;
31676;SDS011;18385;51.572;6.578;2024-01-30T14:50:57;2.40;;;0.45;;
31676;SDS011;18385;51.572;6.578;2024-01-30T14:53:22;1.30;;;0.40;;
31676;SDS011;18385;51.572;6.578;2024-01-30T14:55:48;1.95;;;0.40;;
31676;SDS011;18385;51.572;6.578;2024-01-30T14:58:14;3.33;;;0.65;;
31676;SDS011;18385;51.572;6.578;2024-01-30T15:00:39;1.85;;;0.30;;
31676;SDS011;18385;51.572;6.578;2024-01-30T15:03:05;1.85;;;0.93;;
31676;SDS011;18385;51.572;6.578;2024-01-30T15:05:31;2.53;;;0.20;;